Aviation Digital Data Service (ADDS)

Output produced by METARs form (1453 UTC 03 June 2020)
found at http://www.aviationweather.gov/metar/data/
 
Forecast for: HSSS (KHARTOUM (CIV/MI, SD)
Text: HSSS 031100Z 0312/0418 36008G18KT CAVOK
Forecast period: 1200 UTC 03 June 2020 to 1800 UTC 04 June 2020
Forecast type: FROM: standard forecast or significant change
Winds: from the N (360 degrees) at 9 MPH (8 knots; 4.1 m/s)
gusting to 21 MPH (18 knots; 9.3 m/s)
Visibility: 6 or more miles 10+ km)
Ceiling: unknown
Clouds: missing
Weather: NSW  (no significant weather)